Time;durP1;ratioP1;P1;durP2;ratioP2;P2;SDS_P1;SDS_P2;PMS_P1;PMS_P2;Temp;Humidity;BMP_temperature;BMP_pressure;BME280_temperature;BME280_humidity;BME280_pressure;Samples;Min_cycle;Max_cycle;Signal;HPM_P1;HPM_P2
2023/04/05 00:01:27;;;;;;;9.50;3.20;;;;;;;1.20;61.71;92430.13;5109718;28;20405;-75
2023/04/05 00:03:56;;;;;;;6.15;3.00;;;;;;;1.17;62.22;92440.88;5101247;28;20454;-75
2023/04/05 00:06:27;;;;;;;9.38;3.20;;;;;;;1.19;62.55;92439.66;5106273;27;20040;-75
2023/04/05 00:09:00;;;;;;;8.52;3.08;;;;;;;1.09;61.27;92441.28;5103646;27;20169;-76
2023/04/05 00:11:31;;;;;;;6.30;3.38;;;;;;;1.03;62.35;92448.09;5099742;28;20084;-75
2023/04/05 00:14:00;;;;;;;7.43;3.63;;;;;;;0.98;62.01;92441.06;5104506;28;20090;-75
2023/04/05 00:16:26;;;;;;;7.32;3.28;;;;;;;0.96;61.62;92432.75;5102126;28;20450;-74
2023/04/05 00:18:53;;;;;;;11.23;3.67;;;;;;;0.96;62.26;92445.66;5105083;27;20546;-75
2023/04/05 00:21:22;;;;;;;10.23;3.13;;;;;;;0.91;62.45;92445.56;5106063;28;20028;-76
2023/04/05 00:23:53;;;;;;;7.43;3.28;;;;;;;0.86;62.21;92444.66;5102331;28;20078;-76
2023/04/05 00:26:20;;;;;;;8.55;3.35;;;;;;;0.81;62.50;92441.00;5104498;28;20501;-76
2023/04/05 00:28:51;;;;;;;10.25;3.10;;;;;;;0.79;63.08;92439.66;5101950;28;20032;-75
2023/04/05 00:31:17;;;;;;;6.07;3.40;;;;;;;0.72;64.12;92447.50;5105017;27;20513;-76
2023/04/05 00:33:44;;;;;;;12.23;3.35;;;;;;;0.66;64.41;92442.47;5085200;28;20398;-76
2023/04/05 00:36:17;;;;;;;7.43;3.80;;;;;;;0.57;64.77;92439.47;5103672;28;20036;-76
2023/04/05 00:38:44;;;;;;;7.15;3.22;;;;;;;0.52;64.95;92440.13;5103809;28;20114;-76
2023/04/05 00:41:11;;;;;;;9.05;3.38;;;;;;;0.46;65.38;92446.19;5100135;28;20040;-76
2023/04/05 00:43:37;;;;;;;7.03;3.28;;;;;;;0.47;65.09;92445.16;5082618;28;20028;-75
2023/04/05 00:46:05;;;;;;;8.65;3.10;;;;;;;0.41;65.18;92440.94;5101814;28;20034;-76
2023/04/05 00:48:32;;;;;;;8.45;3.35;;;;;;;0.38;65.21;92447.31;5097207;27;20040;-76
2023/04/05 00:50:58;;;;;;;8.73;3.17;;;;;;;0.36;65.79;92436.47;5099836;28;20031;-74
2023/04/05 00:53:26;;;;;;;6.90;3.08;;;;;;;0.35;65.07;92436.66;5108036;27;20118;-76
2023/04/05 00:55:52;;;;;;;6.30;3.22;;;;;;;0.33;65.35;92438.69;5096697;27;20023;-74
2023/04/05 00:58:20;;;;;;;7.00;3.17;;;;;;;0.30;65.41;92444.28;5100269;28;20031;-76
2023/04/05 01:00:52;;;;;;;5.05;2.92;;;;;;;0.28;65.03;92449.66;5105657;28;20035;-75
2023/04/05 01:03:24;;;;;;;6.43;2.65;;;;;;;0.25;65.03;92441.59;5101164;28;21959;-76
2023/04/05 01:06:00;;;;;;;5.57;2.95;;;;;;;0.32;64.38;92443.06;5118338;27;20092;-76
2023/04/05 01:08:31;;;;;;;11.00;3.40;;;;;;;0.29;64.97;92442.72;5102456;28;20027;-76
2023/04/05 01:11:02;;;;;;;6.47;3.00;;;;;;;0.24;65.42;92442.59;5099002;28;20410;-73
2023/04/05 01:13:29;;;;;;;11.15;3.20;;;;;;;0.18;65.53;92442.50;5103874;28;20396;-76
2023/04/05 01:15:55;;;;;;;6.72;3.20;;;;;;;0.16;65.44;92443.72;5102114;28;20035;-74
2023/04/05 01:18:23;;;;;;;8.35;3.28;;;;;;;0.11;65.56;92434.09;5099855;28;20039;-75
2023/04/05 01:21:00;;;;;;;6.80;2.90;;;;;;;0.11;65.66;92436.69;5083008;28;20131;-76
2023/04/05 01:23:43;;;;;;;8.13;3.40;;;;;;;0.07;65.15;92435.56;5099835;28;20092;-76
2023/04/05 01:26:25;;;;;;;6.35;3.75;;;;;;;0.08;65.91;92437.09;5105643;27;20027;-76
2023/04/05 01:29:06;;;;;;;8.80;3.13;;;;;;;0.05;65.64;92442.72;5094802;27;20023;-76
2023/04/05 01:31:50;;;;;;;5.35;2.92;;;;;;;0.03;66.72;92437.00;5098669;28;20031;-75
2023/04/05 01:34:24;;;;;;;7.05;3.10;;;;;;;0.00;65.59;92424.59;5104187;28;20027;-75
2023/04/05 01:36:56;;;;;;;6.45;3.17;;;;;;;0.07;65.07;92440.69;5102490;28;20027;-76
2023/04/05 01:39:23;;;;;;;15.30;3.20;;;;;;;0.12;64.44;92440.03;5103575;27;20047;-76
2023/04/05 01:41:49;;;;;;;7.13;3.22;;;;;;;0.12;64.70;92447.75;5106076;27;20023;-76
2023/04/05 01:44:15;;;;;;;5.75;3.13;;;;;;;0.13;64.65;92444.94;5100719;28;20370;-75
2023/04/05 01:46:40;;;;;;;4.47;2.65;;;;;;;0.06;64.95;92438.34;5098618;28;20058;-75
2023/04/05 01:49:07;;;;;;;7.68;3.25;;;;;;;0.06;65.01;92446.84;5096874;28;20032;-75
2023/04/05 01:51:33;;;;;;;7.45;3.35;;;;;;;0.04;65.49;92451.44;5100089;28;20032;-75
2023/04/05 01:53:59;;;;;;;6.85;3.13;;;;;;;0.03;65.13;92444.72;5083171;28;20405;-75
2023/04/05 01:56:24;;;;;;;5.30;3.00;;;;;;;0.03;64.17;92446.53;5099747;28;20503;-75
2023/04/05 01:58:50;;;;;;;7.80;3.03;;;;;;;0.02;64.75;92444.94;5099376;28;20447;-74
2023/04/05 02:01:15;;;;;;;5.63;2.85;;;;;;;0.04;64.61;92443.69;5098632;27;20180;-75
2023/04/05 02:03:41;;;;;;;7.93;2.88;;;;;;;0.06;63.58;92448.63;5100840;28;20031;-75
2023/04/05 02:06:07;;;;;;;5.03;2.80;;;;;;;0.10;63.27;92450.53;5081646;28;20032;-74
2023/04/05 02:08:32;;;;;;;5.47;2.67;;;;;;;0.11;62.67;92448.75;5104040;27;20481;-75
2023/04/05 02:10:58;;;;;;;7.35;2.97;;;;;;;0.13;62.52;92439.78;5084335;28;20034;-74
2023/04/05 02:13:25;;;;;;;6.03;2.90;;;;;;;0.16;61.86;92441.16;5086110;28;20041;-75
2023/04/05 02:15:50;;;;;;;8.18;3.08;;;;;;;0.18;62.30;92439.94;5099446;28;20036;-74
2023/04/05 02:18:21;;;;;;;4.82;2.80;;;;;;;0.20;62.41;92445.63;5098866;28;20039;-75
2023/04/05 02:20:50;;;;;;;6.07;2.80;;;;;;;0.27;60.90;92442.94;5102304;28;20039;-75
2023/04/05 02:23:20;;;;;;;6.88;3.03;;;;;;;0.23;62.11;92428.19;5101082;28;20134;-74
2023/04/05 02:25:45;;;;;;;7.28;3.28;;;;;;;0.17;63.52;92433.19;5104251;28;20078;-75
2023/04/05 02:28:11;;;;;;;7.20;2.90;;;;;;;0.14;63.37;92438.81;5102544;28;20081;-75
2023/04/05 02:30:36;;;;;;;5.68;2.85;;;;;;;0.09;62.95;92438.69;5102908;28;20397;-74
2023/04/05 02:33:03;;;;;;;8.05;2.85;;;;;;;0.04;63.57;92435.97;5102165;28;20035;-75
2023/04/05 02:35:29;;;;;;;5.50;2.92;;;;;;;0.01;64.63;92435.66;5099132;28;20039;-75
2023/04/05 02:37:55;;;;;;;4.70;2.85;;;;;;;-0.04;64.07;92442.25;5102335;28;20069;-76
2023/04/05 02:40:21;;;;;;;10.35;2.80;;;;;;;-0.06;64.08;92443.47;5101720;28;20028;-75
2023/04/05 02:42:47;;;;;;;7.60;3.08;;;;;;;-0.07;64.10;92439.31;5106070;28;20032;-75
2023/04/05 02:45:12;;;;;;;5.70;2.78;;;;;;;-0.07;63.76;92434.19;5102164;28;20031;-74
2023/04/05 02:47:38;;;;;;;4.45;2.55;;;;;;;-0.06;64.11;92433.19;5099104;28;20084;-75
2023/04/05 02:50:04;;;;;;;6.43;3.03;;;;;;;-0.06;64.22;92435.75;5098325;28;20571;-75
2023/04/05 02:52:36;;;;;;;9.05;2.90;;;;;;;-0.11;63.71;92430.47;5095643;28;20093;-75
2023/04/05 02:55:06;;;;;;;11.35;3.20;;;;;;;-0.09;64.47;92436.19;5099580;28;20032;-75
2023/04/05 02:57:33;;;;;;;8.38;3.05;;;;;;;-0.05;62.50;92437.31;5099112;28;20042;-75
2023/04/05 03:00:07;;;;;;;14.27;3.08;;;;;;;-0.02;62.49;92434.31;5083731;28;20511;-75
2023/04/05 03:02:33;;;;;;;10.98;2.80;;;;;;;-0.03;62.30;92430.94;5099606;28;20040;-75
2023/04/05 03:05:01;;;;;;;4.70;2.50;;;;;;;0.03;62.13;92433.66;5097884;28;20093;-75
2023/04/05 03:07:29;;;;;;;7.90;2.92;;;;;;;0.00;62.49;92440.03;5100939;28;20423;-76
2023/04/05 03:09:55;;;;;;;5.05;2.78;;;;;;;0.02;61.87;92437.22;5097497;28;20032;-75
2023/04/05 03:12:21;;;;;;;4.72;2.53;;;;;;;0.01;61.32;92435.66;5083083;28;20027;-76
2023/04/05 03:14:47;;;;;;;8.18;2.95;;;;;;;-0.01;61.42;92435.88;5099546;28;20032;-76
2023/04/05 03:17:16;;;;;;;9.20;2.78;;;;;;;-0.05;62.09;92434.75;5100558;28;20047;-76
2023/04/05 03:19:47;;;;;;;6.78;3.28;;;;;;;-0.04;62.51;92434.53;5096813;28;20699;-76
2023/04/05 03:22:20;;;;;;;5.85;2.60;;;;;;;-0.05;62.17;92438.09;5095294;28;20083;-75
2023/04/05 03:24:46;;;;;;;6.28;2.55;;;;;;;-0.07;62.43;92439.31;5070515;28;20147;-76
2023/04/05 03:27:14;;;;;;;7.03;2.50;;;;;;;-0.09;62.21;92441.34;5073403;28;20514;-75
2023/04/05 03:29:54;;;;;;;5.18;2.78;;;;;;;-0.05;61.85;92439.88;5074637;28;20048;-75
2023/04/05 03:32:20;;;;;;;5.40;2.70;;;;;;;-0.07;61.10;92434.19;5084243;28;20040;-74
2023/04/05 03:34:51;;;;;;;5.88;2.60;;;;;;;-0.10;62.71;92432.84;5057751;28;20028;-75
2023/04/05 03:37:18;;;;;;;4.95;2.63;;;;;;;-0.15;63.55;92432.72;5071905;28;20040;-75
2023/04/05 03:39:49;;;;;;;4.90;2.42;;;;;;;-0.21;63.52;92431.81;5052318;28;20060;-75
2023/04/05 03:42:16;;;;;;;5.25;2.88;;;;;;;-0.22;64.33;92426.91;5073145;28;20044;-76
2023/04/05 03:44:43;;;;;;;5.32;2.75;;;;;;;-0.26;64.96;92429.13;5072813;28;20040;-75
2023/04/05 03:47:09;;;;;;;8.48;3.10;;;;;;;-0.29;65.71;92424.44;5070989;28;20318;-75
2023/04/05 03:49:37;;;;;;;6.22;3.05;;;;;;;-0.26;65.87;92423.19;5073348;28;20039;-75
2023/04/05 03:52:03;;;;;;;7.53;3.00;;;;;;;-0.29;65.74;92414.13;5072005;28;20040;-77
2023/04/05 03:54:28;;;;;;;8.32;3.45;;;;;;;-0.25;66.31;92420.41;5070449;28;20086;-76
2023/04/05 03:56:56;;;;;;;6.05;3.30;;;;;;;-0.25;66.46;92420.41;5072049;28;20035;-76
2023/04/05 03:59:22;;;;;;;9.30;3.20;;;;;;;-0.26;67.85;92426.53;5070770;28;20039;-76
2023/04/05 04:01:48;;;;;;;13.90;3.67;;;;;;;-0.26;68.34;92416.25;5061157;28;20051;-76
2023/04/05 04:04:14;;;;;;;14.27;3.40;;;;;;;-0.28;67.89;92415.69;5069454;28;20037;-76
2023/04/05 04:06:44;;;;;;;6.43;3.00;;;;;;;-0.23;68.88;92415.81;5071232;28;20032;-74
2023/04/05 04:09:12;;;;;;;8.85;3.20;;;;;;;-0.22;68.74;92419.97;5037958;28;20036;-74
2023/04/05 04:11:37;;;;;;;7.53;3.13;;;;;;;-0.17;69.31;92421.09;5073413;28;20043;-76
2023/04/05 04:14:05;;;;;;;11.05;3.17;;;;;;;-0.16;69.68;92414.94;5068227;28;20036;-76
2023/04/05 04:16:38;;;;;;;7.18;3.30;;;;;;;-0.13;69.20;92419.66;5071803;28;20047;-76
2023/04/05 04:19:22;;;;;;;14.68;3.78;;;;;;;-0.13;69.26;92409.34;5084421;28;20062;-74
2023/04/05 04:22:08;;;;;;;13.40;3.67;;;;;;;-0.05;69.21;92425.22;5071267;28;20409;-76
2023/04/05 04:25:03;;;;;;;;;;;;;;;0.01;69.78;92420.22;5080694;28;20105;-76
2023/04/05 04:27:59;;;;;;;5.35;3.00;;;;;;;0.03;69.84;92424.13;5055040;28;19947;-76
2023/04/05 04:30:43;;;;;;;11.10;3.70;;;;;;;0.06;71.46;92418.53;5088230;28;20523;-76
2023/04/05 04:33:33;;;;;;;7.90;3.90;;;;;;;0.12;72.70;92422.78;5033723;28;20517;-76
2023/04/05 04:36:35;;;;;;;9.52;3.42;;;;;;;0.15;73.41;92411.25;5045444;28;20240;-76
2023/04/05 04:39:25;;;;;;;8.50;3.28;;;;;;;0.23;72.99;92412.72;5066478;28;20032;-76
2023/04/05 04:42:10;;;;;;;6.45;3.35;;;;;;;0.25;72.57;92408.91;5086199;28;20047;-76
2023/04/05 04:44:53;;;;;;;11.15;3.35;;;;;;;0.25;71.36;92408.13;5068346;28;20048;-76
2023/04/05 04:47:30;;;;;;;9.30;3.53;;;;;;;0.23;71.44;92413.50;5041866;28;20039;-77
2023/04/05 04:50:22;;;;;;;6.18;3.78;;;;;;;0.22;71.50;92403.44;5052129;28;20130;-75
2023/04/05 04:52:47;;;;;;;8.73;3.65;;;;;;;0.24;71.69;92409.13;5053241;28;20509;-76
2023/04/05 04:55:13;;;;;;;7.95;3.70;;;;;;;0.24;72.42;92404.75;5088347;28;20032;-76
2023/04/05 04:57:41;;;;;;;10.52;3.97;;;;;;;0.21;72.61;92400.06;5087887;28;20029;-75
2023/04/05 05:00:12;;;;;;;8.95;3.53;;;;;;;0.23;72.35;92405.00;5085564;28;20024;-77
2023/04/05 05:02:39;;;;;;;8.77;3.67;;;;;;;0.19;72.69;92408.00;5069160;28;20032;-79
2023/04/05 05:05:06;;;;;;;9.10;3.72;;;;;;;0.17;71.63;92407.44;5068984;28;20398;-78
2023/04/05 05:07:32;;;;;;;6.85;3.33;;;;;;;0.21;70.13;92405.22;5073924;28;20031;-77
2023/04/05 05:09:57;;;;;;;7.40;4.00;;;;;;;0.17;69.71;92399.72;5038601;28;20050;-78
2023/04/05 05:12:25;;;;;;;9.80;3.22;;;;;;;0.24;69.03;92414.28;5067780;28;20062;-77
2023/04/05 05:14:51;;;;;;;6.85;3.50;;;;;;;0.23;68.69;92412.72;5081743;28;20031;-78
2023/04/05 05:17:19;;;;;;;10.82;3.28;;;;;;;0.27;67.96;92413.81;5035095;28;20052;-77
2023/04/05 05:19:45;;;;;;;7.47;2.90;;;;;;;0.31;67.63;92405.44;5088384;28;20028;-78
2023/04/05 05:22:10;;;;;;;7.25;2.80;;;;;;;0.37;66.86;92414.84;5085709;28;20375;-78
2023/04/05 05:24:36;;;;;;;6.05;3.20;;;;;;;0.45;66.40;92405.19;5094012;28;20048;-78
2023/04/05 05:27:02;;;;;;;6.13;3.10;;;;;;;0.56;65.77;92418.06;5092628;28;20039;-77
2023/04/05 05:29:27;;;;;;;6.82;3.40;;;;;;;0.66;66.08;92416.72;5108329;28;20024;-79
2023/04/05 05:31:54;;;;;;;6.28;3.17;;;;;;;0.75;65.93;92420.50;5104275;28;20051;-79
2023/04/05 05:34:20;;;;;;;7.68;3.22;;;;;;;0.78;66.20;92425.19;5105783;28;20062;-79
2023/04/05 05:36:56;;;;;;;5.40;3.05;;;;;;;0.90;65.98;92427.75;5105210;28;20055;-79
2023/04/05 05:39:22;;;;;;;7.72;3.20;;;;;;;1.00;66.40;92422.78;5111282;28;20058;-79
2023/04/05 05:41:48;;;;;;;10.52;2.97;;;;;;;1.09;66.27;92425.78;5105101;28;20051;-79
2023/04/05 05:44:14;;;;;;;5.82;3.20;;;;;;;1.18;65.58;92427.78;5108124;28;20031;-79
2023/04/05 05:46:39;;;;;;;7.93;3.38;;;;;;;1.22;65.33;92412.63;5082556;28;20405;-80
2023/04/05 05:49:05;;;;;;;7.05;3.22;;;;;;;1.38;63.85;92424.00;5093156;28;20055;-79
2023/04/05 05:51:31;;;;;;;10.13;3.60;;;;;;;1.47;62.76;92429.59;5108279;28;20055;-79
2023/04/05 05:53:57;;;;;;;8.00;3.15;;;;;;;1.57;61.63;92422.78;5105799;28;20076;-78
2023/04/05 05:56:22;;;;;;;5.88;3.00;;;;;;;1.63;60.21;92423.66;5104194;28;20081;-78
2023/04/05 05:58:48;;;;;;;8.02;2.90;;;;;;;1.76;61.15;92427.75;5106099;28;20027;-77
2023/04/05 06:01:14;;;;;;;7.57;3.28;;;;;;;1.87;60.45;92432.84;5105297;28;20036;-79
2023/04/05 06:03:39;;;;;;;5.75;2.92;;;;;;;1.97;60.00;92431.44;5106872;28;20080;-79
2023/04/05 06:06:07;;;;;;;8.38;3.00;;;;;;;2.03;60.54;92435.66;5105757;28;20574;-79
2023/04/05 06:08:33;;;;;;;11.15;3.17;;;;;;;2.11;59.33;92435.25;5105945;28;20036;-79
2023/04/05 06:10:59;;;;;;;7.88;3.22;;;;;;;2.16;58.13;92435.38;5105434;28;20031;-79
2023/04/05 06:13:25;;;;;;;7.43;2.90;;;;;;;2.19;57.12;92434.88;5104737;28;20047;-79
2023/04/05 06:15:50;;;;;;;9.85;3.00;;;;;;;2.26;58.38;92440.66;5107290;28;20036;-78
2023/04/05 06:18:16;;;;;;;12.05;3.15;;;;;;;2.32;58.16;92438.94;5105126;27;20059;-81
2023/04/05 06:20:43;;;;;;;8.93;2.92;;;;;;;2.41;57.44;92444.47;5108894;28;20280;-79
2023/04/05 06:23:10;;;;;;;7.22;3.00;;;;;;;2.49;57.00;92441.50;5109704;28;20070;-80
2023/04/05 06:25:35;;;;;;;7.45;3.20;;;;;;;2.57;56.56;92435.13;5102550;28;20110;-80
2023/04/05 06:28:03;;;;;;;6.80;3.55;;;;;;;2.81;55.78;92441.66;5104825;28;20169;-81
2023/04/05 06:30:29;;;;;;;6.60;3.63;;;;;;;3.77;55.84;92442.22;5105096;28;20039;-81
2023/04/05 06:32:55;;;;;;;7.35;3.00;;;;;;;5.06;50.00;92440.22;5103569;28;20561;-81
2023/04/05 06:35:23;;;;;;;5.45;3.05;;;;;;;6.27;46.89;92432.22;5108072;28;20089;-82
2023/04/05 06:37:50;;;;;;;8.00;3.58;;;;;;;7.33;43.28;92431.47;5108219;28;20124;-80
2023/04/05 06:40:16;;;;;;;9.20;3.17;;;;;;;8.25;41.60;92434.34;5105971;28;20080;-80
2023/04/05 06:42:41;;;;;;;6.45;3.20;;;;;;;9.27;39.27;92432.63;5103247;28;20057;-80
2023/04/05 06:45:10;;;;;;;5.75;3.28;;;;;;;9.68;38.48;92437.38;5101323;28;20036;-79
2023/04/05 06:47:38;;;;;;;5.93;3.33;;;;;;;10.28;34.84;92434.19;5101222;28;20047;-80
2023/04/05 06:50:05;;;;;;;6.82;3.40;;;;;;;10.98;36.05;92435.16;5088203;28;20031;-80
2023/04/05 06:52:31;;;;;;;6.43;3.50;;;;;;;11.49;34.22;92425.59;5108285;28;20478;-81
2023/04/05 06:54:57;;;;;;;6.40;3.53;;;;;;;12.14;33.03;92429.78;5098376;28;20032;-80
2023/04/05 06:57:22;;;;;;;11.18;3.42;;;;;;;12.14;32.50;92424.53;5112143;28;20035;-82
2023/04/05 06:59:48;;;;;;;6.35;3.28;;;;;;;12.87;32.40;92427.78;5109747;28;20020;-81
2023/04/05 07:02:14;;;;;;;6.20;3.13;;;;;;;13.13;32.05;92430.56;5112683;27;20036;-81
2023/04/05 07:04:40;;;;;;;6.43;3.60;;;;;;;12.79;33.59;92425.88;5117773;28;20023;-82
2023/04/05 07:07:05;;;;;;;8.00;3.72;;;;;;;12.31;33.53;92426.50;5113513;28;20054;-80
2023/04/05 07:09:31;;;;;;;6.22;3.47;;;;;;;10.87;35.45;92424.09;5114546;28;20085;-80
2023/04/05 07:12:05;;;;;;;16.70;3.30;;;;;;;9.93;37.38;92417.97;5109503;27;20062;-80
2023/04/05 07:14:36;;;;;;;7.28;3.40;;;;;;;8.62;39.96;92424.41;5090329;28;20031;-80
2023/04/05 07:17:05;;;;;;;6.70;3.53;;;;;;;7.38;38.47;92421.81;5106727;28;20040;-80
2023/04/05 07:19:32;;;;;;;7.25;3.50;;;;;;;6.27;42.28;92415.84;5108738;28;20023;-78
2023/04/05 07:21:58;;;;;;;7.80;3.38;;;;;;;6.45;46.45;92421.28;5112902;28;20100;-79
2023/04/05 07:24:24;;;;;;;10.75;3.78;;;;;;;6.34;45.47;92422.34;5107204;28;20051;-80
2023/04/05 07:26:50;;;;;;;8.20;3.60;;;;;;;6.19;46.93;92424.94;5109582;28;20318;-78
2023/04/05 07:29:15;;;;;;;4.43;2.35;;;;;;;6.25;46.16;92434.28;5107382;28;20028;-79
2023/04/05 07:31:41;;;;;;;8.00;3.47;;;;;;;6.76;45.51;92416.03;5107863;28;20402;-79
2023/04/05 07:34:06;;;;;;;6.55;3.22;;;;;;;6.12;47.82;92420.00;5108100;28;20036;-78
2023/04/05 07:36:32;;;;;;;9.00;3.92;;;;;;;6.00;48.61;92429.88;5109397;28;20497;-79
2023/04/05 07:38:58;;;;;;;7.45;3.15;;;;;;;5.79;48.00;92418.66;5105042;28;20040;-80
2023/04/05 07:41:25;;;;;;;9.98;3.60;;;;;;;5.41;49.27;92418.81;5108930;28;20036;-80
2023/04/05 07:43:51;;;;;;;7.53;3.67;;;;;;;5.30;48.87;92430.22;5106565;28;20031;-78
2023/04/05 07:46:17;;;;;;;10.98;3.40;;;;;;;5.39;48.87;92426.09;5108071;28;20031;-80
2023/04/05 07:48:42;;;;;;;6.22;3.63;;;;;;;5.40;49.50;92426.84;5109412;28;20034;-80
2023/04/05 07:51:09;;;;;;;5.93;3.08;;;;;;;5.64;48.22;92427.97;5107201;28;20083;-80
2023/04/05 07:53:36;;;;;;;9.52;3.83;;;;;;;4.97;50.21;92431.38;5109651;28;20024;-79
2023/04/05 07:56:09;;;;;;;6.70;3.05;;;;;;;5.57;48.45;92424.06;5089638;28;20047;-78
2023/04/05 07:58:39;;;;;;;8.27;3.40;;;;;;;5.39;48.05;92420.13;5109781;28;20027;-80
2023/04/05 08:01:05;;;;;;;9.90;3.05;;;;;;;5.40;48.68;92422.47;5106879;28;20033;-81
2023/04/05 08:03:33;;;;;;;3.72;2.03;;;;;;;5.40;47.15;92421.66;5108073;28;20090;-79
2023/04/05 08:06:09;;;;;;;8.23;3.33;;;;;;;5.39;48.35;92422.72;5104870;28;20115;-80
2023/04/05 08:08:35;;;;;;;5.22;3.20;;;;;;;5.42;45.14;92425.56;5107620;28;20540;-80
2023/04/05 08:11:04;;;;;;;6.63;2.17;;;;;;;5.53;47.00;92426.38;5106056;28;20043;-81
2023/04/05 08:13:30;;;;;;;9.63;3.10;;;;;;;5.43;46.44;92421.94;5111707;28;20034;-80
2023/04/05 08:15:56;;;;;;;10.63;3.00;;;;;;;5.41;47.46;92423.25;5105356;28;20024;-79
2023/04/05 08:18:21;;;;;;;5.25;2.67;;;;;;;5.40;43.95;92429.47;5106778;28;20031;-80
2023/04/05 08:20:52;;;;;;;4.97;2.65;;;;;;;5.50;44.87;92419.13;5108366;28;20118;-80
2023/04/05 08:23:18;;;;;;;4.88;2.38;;;;;;;5.34;45.07;92422.72;5108412;28;20048;-80
2023/04/05 08:25:44;;;;;;;5.50;2.65;;;;;;;5.39;43.82;92423.50;5105226;28;20043;-81
2023/04/05 08:28:10;;;;;;;7.75;3.00;;;;;;;5.51;43.93;92427.69;5105308;28;20047;-80
2023/04/05 08:30:36;;;;;;;5.95;3.10;;;;;;;5.50;46.13;92424.31;5106077;28;20040;-79
2023/04/05 08:33:01;;;;;;;4.93;2.72;;;;;;;5.67;45.69;92420.69;5103384;28;20071;-79
2023/04/05 08:35:27;;;;;;;5.97;3.35;;;;;;;5.81;45.59;92427.75;5109650;28;20036;-79
2023/04/05 08:37:52;;;;;;;4.40;2.67;;;;;;;5.95;45.69;92412.47;5112319;28;20078;-80
2023/04/05 08:40:18;;;;;;;6.47;3.10;;;;;;;5.95;45.67;92430.66;5106703;28;20040;-80
2023/04/05 08:42:51;;;;;;;6.57;3.55;;;;;;;5.59;44.53;92422.00;5108162;28;20040;-80
2023/04/05 08:45:18;;;;;;;6.75;3.17;;;;;;;5.36;46.00;92425.84;5108156;28;20031;-80
2023/04/05 08:47:45;;;;;;;6.68;3.35;;;;;;;5.35;45.07;92421.66;5110605;28;20024;-80
2023/04/05 08:50:12;;;;;;;5.90;3.13;;;;;;;5.49;47.12;92427.91;5107057;28;20100;-79
2023/04/05 08:52:41;;;;;;;6.30;3.33;;;;;;;5.60;45.75;92424.31;5107350;28;20036;-79
2023/04/05 08:55:08;;;;;;;5.68;3.15;;;;;;;5.70;46.26;92422.81;5107779;28;20112;-80
2023/04/05 08:57:36;;;;;;;6.57;2.60;;;;;;;5.82;44.82;92413.72;5107066;28;20097;-80
2023/04/05 09:00:02;;;;;;;4.50;2.75;;;;;;;5.40;45.29;92425.06;5099983;28;20101;-78
2023/04/05 09:02:28;;;;;;;8.15;3.53;;;;;;;5.34;45.10;92415.69;5109861;28;20027;-79
2023/04/05 09:04:55;;;;;;;5.60;2.88;;;;;;;5.64;44.59;92429.78;5106569;28;20020;-80
2023/04/05 09:07:21;;;;;;;7.40;3.30;;;;;;;5.49;43.67;92430.53;5109224;27;20096;-79
2023/04/05 09:09:51;;;;;;;7.78;4.00;;;;;;;5.43;43.12;92423.78;5110460;28;20039;-80
2023/04/05 09:12:21;;;;;;;3.97;2.45;;;;;;;5.91;46.08;92421.78;5109623;28;20549;-80
2023/04/05 09:14:48;;;;;;;11.88;3.60;;;;;;;5.87;43.63;92431.13;5103763;28;20103;-80
2023/04/05 09:17:16;;;;;;;4.22;2.45;;;;;;;5.76;44.08;92421.75;5110027;28;20172;-79
2023/04/05 09:19:42;;;;;;;5.80;3.00;;;;;;;6.01;43.06;92421.81;5105841;28;20077;-80
2023/04/05 09:22:09;;;;;;;7.68;2.95;;;;;;;6.34;43.47;92427.53;5099829;28;20056;-79
2023/04/05 09:24:42;;;;;;;5.97;3.42;;;;;;;6.21;44.42;92421.06;5106502;28;20040;-79
2023/04/05 09:27:12;;;;;;;6.30;2.90;;;;;;;6.42;44.42;92416.63;5106174;28;20039;-80
2023/04/05 09:29:40;;;;;;;6.30;3.17;;;;;;;6.40;43.81;92405.69;5086759;28;20126;-80
2023/04/05 09:32:08;;;;;;;6.72;2.85;;;;;;;6.81;42.84;92412.66;5085950;28;20040;-80
2023/04/05 09:34:37;;;;;;;7.32;3.30;;;;;;;6.96;43.87;92410.00;5103699;28;20054;-80
2023/04/05 09:37:18;;;;;;;8.40;3.58;;;;;;;6.74;43.04;92399.16;5087851;28;20486;-80
2023/04/05 09:39:45;;;;;;;4.90;3.10;;;;;;;6.64;41.75;92412.94;5106612;28;20024;-81
2023/04/05 09:42:14;;;;;;;5.80;3.60;;;;;;;6.81;42.60;92403.00;5105315;28;20070;-80
2023/04/05 09:44:56;;;;;;;5.72;3.05;;;;;;;6.78;42.47;92392.38;5102790;28;20036;-81
2023/04/05 09:47:33;;;;;;;4.80;2.75;;;;;;;6.77;43.12;92401.22;5107644;28;20032;-79
2023/04/05 09:50:16;;;;;;;5.50;3.42;;;;;;;6.86;42.78;92405.59;5104937;28;20160;-80
2023/04/05 09:52:42;;;;;;;6.75;3.47;;;;;;;6.91;41.30;92404.03;5104769;28;20051;-79
2023/04/05 09:55:09;;;;;;;6.80;3.55;;;;;;;7.22;43.30;92402.09;5101292;28;20024;-80
2023/04/05 09:57:37;;;;;;;7.13;3.30;;;;;;;7.35;41.32;92396.31;5105393;28;20031;-80
2023/04/05 10:00:18;;;;;;;8.02;3.25;;;;;;;7.33;41.05;92388.00;5103975;28;20035;-80
2023/04/05 10:02:46;;;;;;;6.45;3.25;;;;;;;7.19;42.11;92397.44;5081657;28;20035;-80
2023/04/05 10:05:14;;;;;;;6.50;3.42;;;;;;;7.02;40.63;92392.53;5104999;28;20085;-80
2023/04/05 10:07:44;;;;;;;5.68;3.30;;;;;;;7.40;41.64;92390.31;5104275;28;20039;-80
2023/04/05 10:10:11;;;;;;;5.47;2.78;;;;;;;7.51;41.55;92389.97;5105001;28;20176;-80
2023/04/05 10:12:40;;;;;;;5.70;3.25;;;;;;;7.17;40.88;92384.69;5087694;28;20039;-80
2023/04/05 10:15:10;;;;;;;5.50;3.08;;;;;;;7.48;40.57;92392.34;5106154;28;20036;-79
2023/04/05 10:17:48;;;;;;;8.75;3.22;;;;;;;7.21;40.39;92379.72;5104869;28;20039;-81
2023/04/05 10:20:15;;;;;;;5.70;3.45;;;;;;;7.19;41.76;92395.59;5111094;28;20066;-79
2023/04/05 10:23:05;;;;;;;5.47;2.90;;;;;;;6.93;42.66;92391.53;5103927;28;20457;-80
2023/04/05 10:25:53;;;;;;;6.82;3.70;;;;;;;6.87;41.32;92396.00;5093747;28;20039;-80
2023/04/05 10:28:33;;;;;;;8.73;3.40;;;;;;;6.62;42.72;92394.19;5106050;28;20036;-80
2023/04/05 10:31:20;;;;;;;3.13;1.98;;;;;;;6.76;40.56;92379.63;5097184;28;20051;-81
2023/04/05 10:33:46;;;;;;;8.52;4.05;;;;;;;6.74;42.00;92386.91;5102069;28;20032;-80
2023/04/05 10:36:38;;;;;;;6.70;2.95;;;;;;;6.87;42.45;92388.19;5103676;28;20035;-80
2023/04/05 10:39:10;;;;;;;7.75;3.60;;;;;;;6.91;42.61;92380.59;5101732;28;20451;-79
2023/04/05 10:41:42;;;;;;;6.35;3.20;;;;;;;7.05;42.52;92382.38;5103195;28;20028;-80
2023/04/05 10:44:10;;;;;;;8.27;3.67;;;;;;;7.03;40.85;92383.69;5100554;28;20032;-80
2023/04/05 10:46:39;;;;;;;5.70;3.70;;;;;;;7.01;43.08;92380.59;5104723;28;20027;-81
2023/04/05 10:49:39;;;;;;;7.88;4.03;;;;;;;7.08;40.47;92376.63;5102224;28;20498;-80
2023/04/05 10:52:05;;;;;;;6.75;3.95;;;;;;;7.14;40.89;92364.41;5091180;28;20068;-80
2023/04/05 10:54:35;;;;;;;5.45;3.78;;;;;;;7.23;42.94;92364.63;5111833;28;20027;-81
2023/04/05 10:57:06;;;;;;;12.15;4.15;;;;;;;7.51;41.27;92368.34;5105789;28;20043;-78
2023/04/05 10:59:33;;;;;;;6.70;3.22;;;;;;;7.36;40.82;92364.00;5100515;28;20444;-80
2023/04/05 11:02:00;;;;;;;7.82;3.53;;;;;;;7.41;40.78;92371.81;5096657;28;20100;-80
2023/04/05 11:04:25;;;;;;;6.97;3.75;;;;;;;7.67;41.69;92372.44;5106613;28;20031;-80
2023/04/05 11:07:17;;;;;;;6.28;3.05;;;;;;;7.67;41.05;92364.59;5099977;28;20131;-79
2023/04/05 11:10:00;;;;;;;10.55;3.95;;;;;;;7.88;41.48;92359.25;5099914;28;20439;-80
2023/04/05 11:12:48;;;;;;;7.30;3.67;;;;;;;8.17;40.64;92364.50;5107824;28;20032;-80
2023/04/05 11:15:31;;;;;;;7.22;3.72;;;;;;;8.14;40.45;92363.22;5095892;28;20032;-81
2023/04/05 11:18:15;;;;;;;5.05;3.30;;;;;;;8.34;40.60;92356.28;5103870;28;20032;-79
2023/04/05 11:20:51;;;;;;;9.45;3.40;;;;;;;8.00;40.43;92349.28;5102325;28;20406;-81
2023/04/05 11:23:19;;;;;;;8.02;4.13;;;;;;;8.11;40.94;92350.75;5099487;28;20165;-81
2023/04/05 11:26:05;;;;;;;5.35;2.92;;;;;;;8.62;40.47;92348.75;5100168;28;20508;-79
2023/04/05 11:28:38;;;;;;;6.53;3.88;;;;;;;8.45;39.05;92355.16;5105417;28;20062;-79
2023/04/05 11:31:13;;;;;;;;;;;;;;;8.14;39.78;92352.03;5099827;28;20441;-79
2023/04/05 11:33:48;;;;;;;9.35;3.33;;;;;;;7.99;40.76;92337.28;5101635;28;19964;-79
2023/04/05 11:36:30;;;;;;;5.88;3.67;;;;;;;8.11;39.98;92336.94;5099936;28;20042;-78
2023/04/05 11:39:22;;;;;;;6.78;3.85;;;;;;;8.07;40.79;92347.13;5105005;28;20598;-80
2023/04/05 11:42:02;;;;;;;8.68;4.20;;;;;;;8.17;41.57;92340.25;5095627;28;20044;-79
2023/04/05 11:44:38;;;;;;;9.05;3.60;;;;;;;8.14;39.74;92350.19;5106989;28;20028;-80
2023/04/05 11:47:04;;;;;;;7.68;3.47;;;;;;;8.08;40.09;92346.09;5109322;28;20043;-78
2023/04/05 11:49:29;;;;;;;9.43;5.22;;;;;;;8.38;40.68;92354.69;5103963;28;20047;-79
2023/04/05 11:51:56;;;;;;;8.20;5.13;;;;;;;8.72;40.91;92357.25;5105920;28;20039;-79